createdAt,value
2019-04-05T00:01:24.531Z,16.93
2019-04-05T00:03:53.031Z,14.83
2019-04-05T00:06:21.831Z,15.57
2019-04-05T00:08:50.522Z,15.17
2019-04-05T00:11:19.007Z,17.27
2019-04-05T00:13:47.436Z,16.77
2019-04-05T00:16:15.943Z,17.93
2019-04-05T00:18:44.363Z,18.50
2019-04-05T00:21:12.924Z,18.53
2019-04-05T00:23:41.709Z,18.80
2019-04-05T00:26:10.236Z,16.77
2019-04-05T00:28:38.719Z,15.67
2019-04-05T00:31:07.219Z,14.27
2019-04-05T00:33:35.628Z,16.87
2019-04-05T00:36:04.112Z,16.60
2019-04-05T00:38:32.528Z,15.63
2019-04-05T00:41:01.185Z,16.27
2019-04-05T00:43:29.608Z,15.20
2019-04-05T00:45:58.100Z,15.20
2019-04-05T00:48:26.594Z,15.97
2019-04-05T00:50:55.083Z,14.60
2019-04-05T00:53:23.564Z,14.33
2019-04-05T00:55:52.107Z,15.37
2019-04-05T00:58:20.620Z,14.80
2019-04-05T01:00:49.105Z,17.63
2019-04-05T01:03:17.599Z,17.47
2019-04-05T01:05:46.188Z,16.83
2019-04-05T01:08:14.605Z,16.73
2019-04-05T01:10:43.021Z,16.97
2019-04-05T01:13:11.516Z,17.10
2019-04-05T01:15:41.304Z,18.90
2019-04-05T01:18:10.155Z,16.00
2019-04-05T01:20:39.548Z,18.50
2019-04-05T01:23:09.294Z,17.33
2019-04-05T01:25:37.944Z,19.57
2019-04-05T01:28:06.440Z,16.67
2019-04-05T01:30:34.949Z,18.43
2019-04-05T01:33:03.420Z,21.10
2019-04-05T01:35:31.928Z,19.20
2019-04-05T01:38:00.732Z,18.13
2019-04-05T01:40:30.340Z,18.83
2019-04-05T01:42:58.968Z,17.27
2019-04-05T01:45:27.745Z,18.57
2019-04-05T01:47:56.229Z,19.37
2019-04-05T01:50:24.704Z,19.17
2019-04-05T01:52:53.200Z,19.23
2019-04-05T01:55:22.157Z,20.03
2019-04-05T01:57:51.129Z,18.50
2019-04-05T02:00:20.377Z,19.27
2019-04-05T02:02:49.400Z,18.67
2019-04-05T02:05:18.449Z,17.23
2019-04-05T02:07:47.487Z,20.27
2019-04-05T02:10:16.625Z,20.87
2019-04-05T02:12:45.649Z,18.77
2019-04-05T02:15:25.929Z,20.47
2019-04-05T02:17:55.282Z,20.40
2019-04-05T02:20:24.325Z,20.93
2019-04-05T02:22:53.393Z,19.93
2019-04-05T02:25:22.547Z,19.40
2019-04-05T02:27:51.633Z,21.00
2019-04-05T02:30:20.921Z,18.50
2019-04-05T02:32:50.065Z,18.10
2019-04-05T02:35:19.213Z,22.73
2019-04-05T02:37:48.342Z,21.17
2019-04-05T02:40:17.965Z,21.30
2019-04-05T02:42:50.091Z,22.60
2019-04-05T02:45:20.367Z,23.20
2019-04-05T02:47:52.701Z,22.87
2019-04-05T02:50:25.118Z,22.37
2019-04-05T02:52:57.129Z,23.50
2019-04-05T02:55:27.273Z,22.63
2019-04-05T02:57:57.247Z,23.63
2019-04-05T03:00:26.302Z,22.80
2019-04-05T03:02:55.873Z,27.00
2019-04-05T03:05:25.710Z,23.43
2019-04-05T03:07:54.782Z,23.73
2019-04-05T03:11:03.501Z,24.53
2019-04-05T03:13:38.174Z,25.43
2019-04-05T03:16:12.675Z,24.07
2019-04-05T03:18:44.787Z,24.50
2019-04-05T03:21:15.703Z,24.13
2019-04-05T03:23:45.934Z,25.83
2019-04-05T03:26:18.582Z,25.23
2019-04-05T03:28:50.648Z,25.20
2019-04-05T03:31:24.547Z,25.43
2019-04-05T03:33:50.601Z,26.50
2019-04-05T03:36:20.655Z,23.67
2019-04-05T03:38:49.909Z,24.43
2019-04-05T03:41:19.195Z,27.37
2019-04-05T03:43:49.897Z,26.47
2019-04-05T03:46:19.002Z,27.50
2019-04-05T03:48:49.598Z,26.73
2019-04-05T03:51:18.770Z,33.30
2019-04-05T03:53:47.860Z,27.30
2019-04-05T03:56:17.295Z,29.37
2019-04-05T03:58:47.256Z,27.17
2019-04-05T04:01:16.564Z,27.00
2019-04-05T04:03:45.580Z,26.30
2019-04-05T04:06:14.774Z,28.07
2019-04-05T04:08:44.100Z,31.10
2019-04-05T04:11:13.564Z,31.57
2019-04-05T04:13:42.931Z,34.57
2019-04-05T04:16:12.429Z,31.13
2019-04-05T04:18:41.772Z,31.60
2019-04-05T04:21:29.923Z,32.90
2019-04-05T04:23:59.282Z,32.53
2019-04-05T04:26:28.622Z,37.70
2019-04-05T04:28:58.347Z,29.93
2019-04-05T04:31:27.576Z,32.37
2019-04-05T04:33:57.056Z,32.20
2019-04-05T04:36:26.111Z,32.40
2019-04-05T04:38:55.538Z,30.77
2019-04-05T04:41:24.574Z,33.40
2019-04-05T04:43:54.356Z,30.73
2019-04-05T04:46:23.600Z,29.97
2019-04-05T04:48:53.753Z,34.90
2019-04-05T04:51:23.823Z,31.87
2019-04-05T04:53:53.343Z,31.63
2019-04-05T04:56:22.604Z,30.90
2019-04-05T04:58:51.731Z,34.23
2019-04-05T05:01:20.804Z,32.47
2019-04-05T05:03:50.627Z,32.40
2019-04-05T05:06:19.652Z,33.13
2019-04-05T05:08:48.692Z,31.43
2019-04-05T05:11:17.849Z,34.67
2019-04-05T05:13:46.878Z,33.50
2019-04-05T05:16:16.724Z,31.20
2019-04-05T05:18:45.772Z,32.93
2019-04-05T05:21:15.054Z,34.90
2019-04-05T05:23:44.304Z,36.27
2019-04-05T05:26:13.328Z,30.50
2019-04-05T05:28:42.896Z,32.67
2019-04-05T05:31:12.032Z,32.10
2019-04-05T05:33:41.516Z,31.23
2019-04-05T05:36:10.825Z,31.37
2019-04-05T05:38:40.047Z,29.87
2019-04-05T05:41:09.108Z,33.03
2019-04-05T05:43:38.136Z,38.80
2019-04-05T05:46:07.184Z,32.37
2019-04-05T05:48:36.424Z,32.07
2019-04-05T05:51:05.494Z,41.90
2019-04-05T05:53:34.612Z,31.37
2019-04-05T05:56:03.652Z,33.37
2019-04-05T05:58:32.644Z,31.37
2019-04-05T06:01:01.708Z,36.27
2019-04-05T06:03:30.835Z,32.63
2019-04-05T06:08:30.817Z,33.73
2019-04-05T06:10:59.717Z,31.67
2019-04-05T06:13:28.680Z,31.33
2019-04-05T06:15:57.693Z,35.60
2019-04-05T06:18:26.656Z,34.07
2019-04-05T06:20:55.617Z,35.77
2019-04-05T06:23:33.657Z,34.50
2019-04-05T06:25:55.481Z,34.10
2019-04-05T06:28:24.388Z,31.67
2019-04-05T06:30:53.339Z,35.87
2019-04-05T06:33:31.442Z,34.83
2019-04-05T06:35:53.305Z,37.53
2019-04-05T06:38:22.181Z,36.13
2019-04-05T06:40:51.481Z,36.57
2019-04-05T06:43:20.489Z,34.93
2019-04-05T06:45:49.506Z,30.57
2019-04-05T06:48:19.761Z,35.53
2019-04-05T06:50:49.056Z,35.80
2019-04-05T06:53:18.105Z,33.20
2019-04-05T06:55:47.145Z,36.23
2019-04-05T06:58:19.787Z,31.50
2019-04-05T07:00:57.080Z,32.93
2019-04-05T07:03:17.826Z,35.87
2019-04-05T07:05:46.797Z,34.50
2019-04-05T07:08:18.147Z,34.43
2019-04-05T07:10:46.946Z,34.87
2019-04-05T07:13:16.009Z,33.30
2019-04-05T07:15:44.910Z,30.03
2019-04-05T07:18:13.982Z,33.30
2019-04-05T07:20:42.955Z,32.13
2019-04-05T07:23:11.926Z,28.17
2019-04-05T07:25:40.966Z,30.37
2019-04-05T07:28:09.922Z,31.47
2019-04-05T07:30:38.874Z,27.33
2019-04-05T07:33:07.926Z,27.37
2019-04-05T07:35:37.331Z,26.87
2019-04-05T07:38:06.394Z,25.73
2019-04-05T07:40:35.734Z,25.40
2019-04-05T07:43:04.846Z,27.03
2019-04-05T07:45:33.891Z,25.93
2019-04-05T07:48:02.913Z,23.37
2019-04-05T07:50:31.967Z,23.63
2019-04-05T07:53:01.066Z,24.50
2019-04-05T07:55:30.024Z,22.63
2019-04-05T07:57:58.993Z,24.50
2019-04-05T08:00:50.294Z,23.17
2019-04-05T08:03:19.796Z,23.10
2019-04-05T08:05:49.678Z,23.37
2019-04-05T08:08:25.899Z,21.00
2019-04-05T08:10:56.433Z,21.50
2019-04-05T08:13:27.847Z,19.90
2019-04-05T08:15:56.895Z,19.87
2019-04-05T08:18:25.878Z,19.90
2019-04-05T08:20:54.938Z,22.63
2019-04-05T08:23:24.222Z,21.53
2019-04-05T08:25:53.275Z,19.30
2019-04-05T08:28:22.211Z,22.60
2019-04-05T08:30:51.183Z,23.03
2019-04-05T08:33:20.092Z,19.10
2019-04-05T08:35:49.040Z,19.27
2019-04-05T08:38:18.015Z,23.40
2019-04-05T08:40:46.996Z,19.10
2019-04-05T08:43:15.995Z,17.30
2019-04-05T08:45:44.983Z,18.30
2019-04-05T08:48:14.048Z,16.20
2019-04-05T08:50:43.384Z,15.77
2019-04-05T08:53:12.410Z,18.07
2019-04-05T08:55:41.466Z,16.13
2019-04-05T08:58:10.439Z,16.93
2019-04-05T09:00:39.475Z,16.33
2019-04-05T09:03:08.456Z,13.03
2019-04-05T09:05:37.552Z,14.90
2019-04-05T09:08:06.605Z,15.67
2019-04-05T09:10:35.659Z,16.40
2019-04-05T09:13:04.699Z,16.93
2019-04-05T09:15:33.615Z,15.93
2019-04-05T09:18:02.640Z,14.97
2019-04-05T09:20:31.588Z,15.60
2019-04-05T09:23:00.544Z,15.80
2019-04-05T09:25:29.630Z,16.20
2019-04-05T09:27:58.583Z,17.67
2019-04-05T09:30:27.668Z,14.60
2019-04-05T09:32:56.576Z,14.20
2019-04-05T09:35:25.556Z,15.50
2019-04-05T09:37:54.640Z,14.20
2019-04-05T09:40:23.784Z,16.73
2019-04-05T09:42:52.676Z,15.90
2019-04-05T09:45:21.716Z,15.33
2019-04-05T09:47:50.688Z,15.20
2019-04-05T09:50:19.921Z,17.10
2019-04-05T09:52:48.884Z,17.50
2019-04-05T09:55:17.929Z,15.27
2019-04-05T09:57:46.952Z,22.07
2019-04-05T10:00:18.924Z,15.97
2019-04-05T10:02:47.913Z,19.13
2019-04-05T10:05:16.996Z,15.47
2019-04-05T10:07:54.598Z,13.17
2019-04-05T10:10:16.810Z,17.27
2019-04-05T10:12:45.845Z,15.43
2019-04-05T10:15:15.193Z,13.77
2019-04-05T10:17:44.216Z,14.97
2019-04-05T10:20:13.380Z,12.20
2019-04-05T10:22:42.498Z,12.47
2019-04-05T10:25:11.685Z,11.20
2019-04-05T10:27:40.985Z,8.20
2019-04-05T10:30:11.778Z,9.83
2019-04-05T10:32:40.751Z,8.27
2019-04-05T10:35:09.773Z,15.87
2019-04-05T10:37:38.737Z,12.40
2019-04-05T10:40:08.421Z,12.10
2019-04-05T10:42:38.356Z,7.33
2019-04-05T10:45:11.078Z,7.07
2019-04-05T10:47:40.026Z,5.97
2019-04-05T10:50:10.626Z,12.33
2019-04-05T10:52:39.641Z,10.63
2019-04-05T10:55:09.077Z,7.77
2019-04-05T10:57:38.125Z,11.33
2019-04-05T11:00:11.069Z,7.13
2019-04-05T11:02:40.105Z,9.03
2019-04-05T11:05:09.346Z,7.87
2019-04-05T11:07:38.377Z,7.37
2019-04-05T11:10:08.513Z,16.37
2019-04-05T11:12:37.539Z,9.67
2019-04-05T11:15:08.488Z,6.50
2019-04-05T11:17:37.809Z,8.33
2019-04-05T11:20:20.668Z,9.13
2019-04-05T11:22:38.994Z,9.83
2019-04-05T11:25:08.198Z,9.57
2019-04-05T11:27:37.354Z,14.13
2019-04-05T11:30:08.148Z,7.87
2019-04-05T11:32:37.266Z,10.63
2019-04-05T11:35:06.826Z,9.00
2019-04-05T11:37:39.279Z,14.17
2019-04-05T11:40:08.748Z,13.13
2019-04-05T11:42:38.602Z,11.43
2019-04-05T11:45:09.266Z,9.63
2019-04-05T11:47:38.791Z,12.10
2019-04-05T11:50:09.638Z,8.20
2019-04-05T11:52:38.630Z,9.10
2019-04-05T11:55:09.263Z,8.60
2019-04-05T11:57:41.006Z,8.20
2019-04-05T12:00:13.215Z,9.90
2019-04-05T12:02:56.251Z,8.17
2019-04-05T12:05:27.130Z,8.00
2019-04-05T12:08:00.881Z,10.63
2019-04-05T12:10:27.487Z,7.17
2019-04-05T12:12:56.945Z,10.27
2019-04-05T12:15:25.919Z,7.73
2019-04-05T12:17:54.868Z,9.87
2019-04-05T12:20:24.163Z,7.93
2019-04-05T12:22:53.435Z,9.30
2019-04-05T12:25:22.475Z,7.73
2019-04-05T12:27:51.540Z,14.50
2019-04-05T12:30:21.463Z,14.17
2019-04-05T12:32:50.571Z,11.67
2019-04-05T12:35:21.622Z,13.03
2019-04-05T12:37:52.981Z,10.37
2019-04-05T12:40:21.303Z,13.33
2019-04-05T12:42:52.879Z,10.07
2019-04-05T12:45:21.031Z,9.73
2019-04-05T12:47:49.911Z,11.70
2019-04-05T12:50:20.035Z,9.63
2019-04-05T12:52:48.992Z,11.13
2019-04-05T12:55:18.351Z,14.07
2019-04-05T12:57:48.562Z,12.10
2019-04-05T13:00:19.375Z,13.20
2019-04-05T13:02:50.316Z,21.10
2019-04-05T13:05:21.260Z,10.20
2019-04-05T13:07:50.744Z,13.27
2019-04-05T13:10:20.740Z,10.73
2019-04-05T13:12:51.841Z,16.77
2019-04-05T13:15:20.845Z,13.33
2019-04-05T13:17:49.867Z,14.27
2019-04-05T13:20:18.925Z,17.27
2019-04-05T13:22:48.046Z,14.17
2019-04-05T13:25:17.128Z,15.73
2019-04-05T13:27:46.104Z,12.97
2019-04-05T13:30:18.373Z,14.57
2019-04-05T13:32:45.981Z,21.67
2019-04-05T13:35:16.789Z,22.30
2019-04-05T13:37:45.744Z,13.17
2019-04-05T13:40:15.421Z,17.40
2019-04-05T13:42:44.477Z,16.77
2019-04-05T13:45:14.800Z,14.60
2019-04-05T13:47:43.848Z,16.33
2019-04-05T13:50:13.096Z,14.63
2019-04-05T13:52:42.336Z,18.47
2019-04-05T13:55:11.617Z,16.40
2019-04-05T13:57:41.232Z,17.23
2019-04-05T14:00:11.119Z,18.93
2019-04-05T14:02:40.153Z,17.83
2019-04-05T14:05:09.493Z,21.40
2019-04-05T14:07:38.622Z,19.97
2019-04-05T14:10:11.071Z,23.13
2019-04-05T14:12:40.205Z,18.17
2019-04-05T14:15:11.255Z,18.83
2019-04-05T14:17:44.042Z,18.90
2019-04-05T14:20:11.662Z,22.00
2019-04-05T14:22:40.548Z,18.40
2019-04-05T14:25:10.284Z,19.87
2019-04-05T14:27:39.348Z,18.57
2019-04-05T14:30:08.694Z,19.40
2019-04-05T14:32:37.777Z,21.57
2019-04-05T14:35:08.133Z,24.77
2019-04-05T14:37:37.792Z,20.03
2019-04-05T14:40:07.577Z,19.27
2019-04-05T14:42:36.577Z,20.57
2019-04-05T14:45:06.346Z,19.73
2019-04-05T14:47:35.725Z,22.03
2019-04-05T14:50:05.370Z,22.03
2019-04-05T14:52:35.033Z,21.17
2019-04-05T14:55:04.715Z,23.23
2019-04-05T14:57:35.643Z,25.23
2019-04-05T15:00:05.142Z,22.23
2019-04-05T15:02:34.113Z,21.30
2019-04-05T15:05:03.167Z,23.93
2019-04-05T15:07:32.238Z,26.47
2019-04-05T15:10:03.594Z,24.10
2019-04-05T15:12:31.946Z,24.10
2019-04-05T15:15:00.970Z,24.17
2019-04-05T15:17:29.849Z,21.40
2019-04-05T15:19:58.752Z,30.83
2019-04-05T15:22:28.043Z,22.73
2019-04-05T15:24:57.010Z,22.77
2019-04-05T15:27:25.970Z,23.43
2019-04-05T15:29:55.732Z,21.07
2019-04-05T15:32:26.118Z,22.57
2019-04-05T15:34:56.553Z,23.13
2019-04-05T15:37:26.282Z,24.97
2019-04-05T15:39:55.322Z,22.13
2019-04-05T15:42:24.298Z,23.00
2019-04-05T15:44:53.182Z,22.03
2019-04-05T15:47:23.423Z,20.07
2019-04-05T15:49:52.994Z,21.97
2019-04-05T15:52:22.066Z,22.67
2019-04-05T15:54:51.004Z,24.80
2019-04-05T15:57:20.194Z,25.30
2019-04-05T15:59:49.263Z,24.13
2019-04-05T16:02:18.590Z,24.27
2019-04-05T16:04:47.546Z,27.43
2019-04-05T16:07:16.455Z,31.17
2019-04-05T16:09:45.467Z,25.57
2019-04-05T16:12:14.854Z,25.50
2019-04-05T16:14:44.171Z,24.23
2019-04-05T16:17:13.205Z,25.23
2019-04-05T16:19:42.308Z,24.37
2019-04-05T16:22:11.404Z,23.27
2019-04-05T16:24:40.362Z,30.90
2019-04-05T16:27:09.394Z,23.20
2019-04-05T16:29:38.655Z,27.27
2019-04-05T16:32:07.907Z,34.77
2019-04-05T16:34:36.963Z,24.67
2019-04-05T16:37:06.119Z,22.83
2019-04-05T16:39:35.381Z,23.10
2019-04-05T16:42:04.447Z,24.43
2019-04-05T16:44:33.579Z,28.67
2019-04-05T16:47:02.627Z,25.07
2019-04-05T16:49:31.608Z,23.60
2019-04-05T16:52:00.551Z,24.73
2019-04-05T16:54:29.623Z,23.87
2019-04-05T16:56:58.684Z,25.30
2019-04-05T16:59:27.723Z,28.40
2019-04-05T17:01:56.959Z,29.17
2019-04-05T17:04:26.435Z,26.63
2019-04-05T17:06:55.571Z,27.03
2019-04-05T17:09:24.717Z,24.53
2019-04-05T17:11:54.063Z,27.70
2019-04-05T17:14:23.469Z,24.90
2019-04-05T17:16:52.743Z,29.43
2019-04-05T17:19:21.780Z,27.90
2019-04-05T17:21:50.725Z,23.20
2019-04-05T17:24:19.682Z,21.03
2019-04-05T17:26:48.672Z,22.43
2019-04-05T17:29:17.700Z,22.60
2019-04-05T17:31:46.673Z,20.90
2019-04-05T17:34:15.733Z,24.80
2019-04-05T17:36:45.053Z,22.40
2019-04-05T17:39:14.160Z,23.53
2019-04-05T17:41:43.152Z,18.50
2019-04-05T17:44:12.212Z,20.93
2019-04-05T17:46:41.156Z,24.10
2019-04-05T17:49:10.152Z,20.97
2019-04-05T17:51:39.197Z,24.30
2019-04-05T17:54:08.308Z,18.27
2019-04-05T17:56:37.732Z,19.37
2019-04-05T17:59:06.772Z,17.90
2019-04-05T18:01:38.600Z,19.03
2019-04-05T18:04:06.572Z,18.63
2019-04-05T18:06:35.648Z,17.43
2019-04-05T18:09:05.456Z,19.37
2019-04-05T18:11:34.528Z,20.23
2019-04-05T18:14:03.846Z,23.97
2019-04-05T18:16:32.816Z,21.03
2019-04-05T18:19:01.845Z,19.53
2019-04-05T18:21:30.728Z,19.77
2019-04-05T18:23:59.773Z,25.63
2019-04-05T18:26:29.218Z,20.43
2019-04-05T18:28:58.121Z,23.67
2019-04-05T18:31:27.101Z,21.40
2019-04-05T18:33:56.392Z,20.23
2019-04-05T18:36:25.353Z,22.87
2019-04-05T18:38:54.329Z,18.90
2019-04-05T18:41:23.217Z,22.13
2019-04-05T18:43:52.259Z,23.83
2019-04-05T18:46:21.345Z,27.87
2019-04-05T18:48:50.381Z,27.30
2019-04-05T18:51:19.842Z,30.63
2019-04-05T18:53:48.772Z,24.77
2019-04-05T18:56:17.753Z,28.20
2019-04-05T18:58:46.739Z,28.10
2019-04-05T19:01:15.689Z,24.90
2019-04-05T19:03:44.674Z,23.40
2019-04-05T19:06:13.697Z,28.27
2019-04-05T19:08:42.712Z,25.30
2019-04-05T19:11:11.674Z,27.80
2019-04-05T19:13:41.052Z,24.70
2019-04-05T19:16:10.470Z,24.30
2019-04-05T19:18:39.550Z,23.83
2019-04-05T19:21:08.590Z,29.60
2019-04-05T19:23:49.931Z,26.00
2019-04-05T19:26:08.334Z,25.97
2019-04-05T19:28:37.759Z,26.03
2019-04-05T19:48:43.535Z,29.17
2019-04-05T19:51:12.585Z,28.70
2019-04-05T19:53:41.480Z,31.70
2019-04-05T19:56:10.541Z,32.50
2019-04-05T19:58:39.499Z,29.10
2019-04-05T20:01:08.533Z,30.63
2019-04-05T20:03:37.912Z,29.53
2019-04-05T20:06:07.972Z,30.17
2019-04-05T20:08:36.941Z,36.07
2019-04-05T20:11:05.944Z,37.80
2019-04-05T20:13:34.957Z,34.80
2019-04-05T20:16:03.942Z,33.60
2019-04-05T20:18:33.128Z,38.40
2019-04-05T20:21:02.177Z,43.53
2019-04-05T20:23:31.174Z,33.07
2019-04-05T20:26:00.141Z,36.30
2019-04-05T20:28:29.053Z,36.47
2019-04-05T20:30:57.947Z,35.87
2019-04-05T20:33:26.988Z,35.30
2019-04-05T20:35:56.037Z,36.87
2019-04-05T20:38:25.079Z,38.37
2019-04-05T20:40:54.438Z,35.73
2019-04-05T20:43:23.409Z,35.83
2019-04-05T20:45:52.533Z,36.27
2019-04-05T20:48:21.581Z,41.60
2019-04-05T20:50:50.553Z,36.00
2019-04-05T20:53:19.545Z,36.30
2019-04-05T20:55:48.546Z,35.77
2019-04-05T20:58:17.584Z,32.37
2019-04-05T21:00:46.546Z,31.77
2019-04-05T21:03:15.554Z,32.17
2019-04-05T21:05:44.502Z,33.27
2019-04-05T21:08:13.542Z,33.17
2019-04-05T21:10:43.003Z,32.40
2019-04-05T21:13:11.875Z,35.80
2019-04-05T21:15:40.890Z,28.37
2019-04-05T21:18:09.950Z,29.33
2019-04-05T21:20:38.875Z,34.57
2019-04-05T21:23:08.165Z,31.57
2019-04-05T21:25:37.430Z,40.00
2019-04-05T21:28:06.468Z,31.30
2019-04-05T21:30:35.839Z,35.37
2019-04-05T21:33:05.577Z,34.07
2019-04-05T21:35:34.903Z,34.63
2019-04-05T21:38:04.289Z,32.07
2019-04-05T21:40:33.407Z,36.20
2019-04-05T21:43:02.453Z,32.17
2019-04-05T21:45:31.494Z,34.10
2019-04-05T21:48:00.580Z,32.63
2019-04-05T21:50:29.675Z,33.67
2019-04-05T21:52:58.728Z,30.77
2019-04-05T21:55:27.744Z,35.63
2019-04-05T21:57:56.782Z,31.77
2019-04-05T22:00:30.968Z,35.47
2019-04-05T22:03:00.132Z,35.57
2019-04-05T22:05:29.226Z,37.33
2019-04-05T22:07:58.406Z,35.13
2019-04-05T22:10:27.502Z,36.60
2019-04-05T22:15:46.634Z,33.67
2019-04-05T22:18:15.821Z,37.37
2019-04-05T22:20:44.845Z,35.17
2019-04-05T22:23:16.502Z,34.50
2019-04-05T22:25:45.614Z,35.43
2019-04-05T22:28:14.821Z,33.07
2019-04-05T22:30:43.946Z,40.97
2019-04-05T22:33:13.064Z,34.93
2019-04-05T22:35:43.409Z,38.13
2019-04-05T22:38:12.449Z,35.60
2019-04-05T22:40:41.477Z,33.40
2019-04-05T22:43:10.605Z,36.53
2019-04-05T22:45:40.006Z,36.53
2019-04-05T22:48:09.097Z,36.23
2019-04-05T22:50:38.205Z,34.77
2019-04-05T22:53:07.317Z,33.57
2019-04-05T22:55:36.433Z,34.77
2019-04-05T22:58:05.570Z,36.90
2019-04-05T23:00:34.822Z,32.63
2019-04-05T23:03:03.989Z,34.87
2019-04-05T23:05:33.378Z,36.20
2019-04-05T23:08:02.490Z,35.63
2019-04-05T23:10:32.042Z,38.13
2019-04-05T23:13:01.158Z,33.27
2019-04-05T23:15:30.214Z,36.03
2019-04-05T23:17:59.306Z,32.07
2019-04-05T23:20:28.686Z,36.03
2019-04-05T23:22:57.790Z,38.23
2019-04-05T23:25:26.826Z,38.07
2019-04-05T23:27:55.970Z,35.10
2019-04-05T23:30:26.522Z,37.80
2019-04-05T23:32:55.640Z,38.57
2019-04-05T23:35:25.302Z,48.20
2019-04-05T23:37:54.422Z,36.83
2019-04-05T23:40:23.610Z,36.93
2019-04-05T23:42:53.098Z,39.30
2019-04-05T23:45:22.220Z,38.90
2019-04-05T23:47:51.389Z,36.80
2019-04-05T23:50:21.366Z,33.60
2019-04-05T23:52:50.426Z,36.97
2019-04-05T23:55:19.611Z,35.43
2019-04-05T23:57:48.812Z,35.23
